Saint Petersburg, Florida
Current Conditions -  °F | °C
As of 9:53 PM on Sunday 23 Nov 2014 (Local Time) from KSPG Reporting Station
Overcast Overcast  
Wind Chill: 22°   Ceiling: 1400
Heat Index: 22°   Visibility: 9mi
Dew Point: 21°   Wind: 7mph
Humidity: 93%   Direction: 200°SSW
Pressure: 29.93"   Gusts: NA
Location:  27.77°N, 82.63°W
Report Text: KSPG 240253Z AUTO 20006KT 9SM OVC014 22/21 A2993 RMK AO2 SLP134 T02220211 53013
Loading
Personal Weather Stations






























Interactive Weather Map New forecast layout! Learn more

10-Day Weather Forecast

Advertisements
Track Severe Weather on mobile